createdAt,value
2023-05-09T00:00:31.051Z,24.39
2023-05-09T00:01:30.693Z,24.39
2023-05-09T00:02:30.836Z,24.39
2023-05-09T00:03:30.784Z,24.39
2023-05-09T00:04:30.926Z,24.39
2023-05-09T00:05:30.878Z,24.40
2023-05-09T00:06:30.936Z,24.39
2023-05-09T00:07:30.995Z,24.39
2023-05-09T00:08:31.124Z,24.39
2023-05-09T00:09:31.061Z,24.40
2023-05-09T00:10:31.214Z,24.40
2023-05-09T00:11:31.165Z,24.40
2023-05-09T00:12:31.216Z,24.39
2023-05-09T00:13:31.254Z,24.40
2023-05-09T00:14:31.309Z,24.40
2023-05-09T00:15:31.360Z,24.40
2023-05-09T00:16:31.443Z,24.40
2023-05-09T00:17:31.533Z,24.40
2023-05-09T00:18:31.575Z,24.40
2023-05-09T00:19:31.647Z,24.40
2023-05-09T00:20:31.719Z,24.39
2023-05-09T00:21:31.764Z,24.39
2023-05-09T00:22:31.850Z,24.39
2023-05-09T00:23:31.902Z,24.40
2023-05-09T00:24:32.034Z,24.39
2023-05-09T00:25:32.017Z,24.40
2023-05-09T00:26:32.070Z,24.39
2023-05-09T00:27:32.089Z,24.39
2023-05-09T00:28:32.166Z,24.40
2023-05-09T00:29:32.224Z,24.40
2023-05-09T00:30:32.234Z,24.39
2023-05-09T00:31:32.331Z,24.39
2023-05-09T00:32:32.384Z,24.40
2023-05-09T00:33:32.451Z,24.40
2023-05-09T00:34:32.473Z,24.40
2023-05-09T00:35:32.547Z,24.40
2023-05-09T00:36:32.611Z,24.40
2023-05-09T00:37:32.672Z,24.39
2023-05-09T00:38:32.710Z,24.39
2023-05-09T00:39:32.790Z,24.39
2023-05-09T00:40:32.926Z,24.40
2023-05-09T00:41:32.880Z,24.40
2023-05-09T00:42:32.910Z,24.39
2023-05-09T00:43:32.992Z,24.39
2023-05-09T00:44:33.105Z,24.39
2023-05-09T00:45:33.106Z,24.39
2023-05-09T00:46:33.233Z,24.39
2023-05-09T00:47:33.425Z,24.39
2023-05-09T00:48:33.296Z,24.39
2023-05-09T00:49:33.353Z,24.39
2023-05-09T00:50:33.440Z,24.38
2023-05-09T00:51:33.478Z,24.39
2023-05-09T00:52:33.558Z,24.39
2023-05-09T00:53:33.597Z,24.39
2023-05-09T00:54:33.669Z,24.39
2023-05-09T00:55:33.733Z,24.40
2023-05-09T00:56:33.828Z,24.39
2023-05-09T00:57:33.811Z,24.39
2023-05-09T00:58:33.899Z,24.39
2023-05-09T00:59:33.966Z,24.39
2023-05-09T01:00:34.018Z,24.40
2023-05-09T01:01:34.111Z,24.39
2023-05-09T01:02:34.183Z,24.39
2023-05-09T01:03:34.247Z,24.39
2023-05-09T01:04:34.212Z,24.39
2023-05-09T01:05:34.244Z,24.38
2023-05-09T01:06:34.294Z,24.39
2023-05-09T01:07:34.375Z,24.38
2023-05-09T01:08:34.424Z,24.39
2023-05-09T01:09:34.463Z,24.38
2023-05-09T01:10:34.525Z,24.39
2023-05-09T01:11:34.612Z,24.39
2023-05-09T01:12:34.740Z,24.39
2023-05-09T01:13:34.710Z,24.38
2023-05-09T01:14:34.786Z,24.38
2023-05-09T01:15:34.836Z,24.38
2023-05-09T01:16:34.903Z,24.38
2023-05-09T01:17:34.962Z,24.38
2023-05-09T01:18:34.960Z,24.39
2023-05-09T01:19:34.999Z,24.38
2023-05-09T01:20:35.045Z,24.38
2023-05-09T01:21:35.102Z,24.38
2023-05-09T01:22:35.159Z,24.38
2023-05-09T01:23:35.217Z,24.38
2023-05-09T01:24:35.278Z,24.38
2023-05-09T01:25:35.311Z,24.38
2023-05-09T01:26:35.359Z,24.38
2023-05-09T01:27:35.398Z,24.38
2023-05-09T01:28:35.559Z,24.38
2023-05-09T01:29:35.533Z,24.39
2023-05-09T01:30:35.578Z,24.39
2023-05-09T01:31:35.611Z,24.38
2023-05-09T01:32:35.673Z,24.39
2023-05-09T01:33:35.634Z,24.38
2023-05-09T01:34:35.709Z,24.38
2023-05-09T01:35:35.806Z,24.38
2023-05-09T01:36:35.836Z,24.38
2023-05-09T01:37:35.884Z,24.38
2023-05-09T01:38:35.934Z,24.38
2023-05-09T01:39:35.983Z,24.38
2023-05-09T01:40:36.066Z,24.38
2023-05-09T01:41:36.132Z,24.38
2023-05-09T01:42:36.181Z,24.38
2023-05-09T01:43:36.371Z,24.38
2023-05-09T01:44:36.389Z,24.38
2023-05-09T01:45:36.375Z,24.39
2023-05-09T01:46:36.425Z,24.38
2023-05-09T01:47:36.532Z,24.37
2023-05-09T01:48:36.486Z,24.38
2023-05-09T01:49:36.537Z,24.38
2023-05-09T01:50:36.576Z,24.38
2023-05-09T01:51:36.660Z,24.38
2023-05-09T01:52:36.671Z,24.38
2023-05-09T01:53:36.720Z,24.38
2023-05-09T01:54:36.780Z,24.37
2023-05-09T01:55:36.866Z,24.37
2023-05-09T01:56:36.880Z,24.38
2023-05-09T01:57:36.960Z,24.38
2023-05-09T01:58:36.981Z,24.37
2023-05-09T01:59:37.033Z,24.37
2023-05-09T02:00:37.217Z,24.37
2023-05-09T02:01:37.120Z,24.37
2023-05-09T02:02:37.256Z,24.37
2023-05-09T02:03:37.249Z,24.38
2023-05-09T02:04:37.315Z,24.37
2023-05-09T02:05:37.339Z,24.38
2023-05-09T02:06:37.361Z,24.36
2023-05-09T02:07:37.395Z,24.37
2023-05-09T02:08:37.440Z,24.37
2023-05-09T02:09:37.524Z,24.37
2023-05-09T02:10:37.573Z,24.37
2023-05-09T02:11:37.663Z,24.37
2023-05-09T02:12:37.692Z,24.36
2023-05-09T02:13:37.725Z,24.37
2023-05-09T02:14:37.786Z,24.36
2023-05-09T02:15:37.844Z,24.37
2023-05-09T02:16:38.044Z,24.37
2023-05-09T02:17:38.009Z,24.37
2023-05-09T02:18:37.968Z,24.37
2023-05-09T02:19:38.023Z,24.37
2023-05-09T02:20:38.082Z,24.37
2023-05-09T02:21:38.108Z,24.36
2023-05-09T02:22:38.164Z,24.35
2023-05-09T02:23:38.197Z,24.36
2023-05-09T02:24:38.270Z,24.36
2023-05-09T02:25:38.334Z,24.35
2023-05-09T02:26:38.379Z,24.36
2023-05-09T02:27:38.474Z,24.36
2023-05-09T02:28:38.507Z,24.36
2023-05-09T02:29:38.564Z,24.36
2023-05-09T02:30:38.621Z,24.36
2023-05-09T02:31:38.693Z,24.36
2023-05-09T02:32:38.873Z,24.36
2023-05-09T02:33:38.749Z,24.36
2023-05-09T02:34:38.788Z,24.35
2023-05-09T02:35:38.857Z,24.35
2023-05-09T02:36:38.892Z,24.35
2023-05-09T02:37:38.930Z,24.35
2023-05-09T02:38:38.982Z,24.35
2023-05-09T02:39:39.062Z,24.36
2023-05-09T02:40:39.152Z,24.35
2023-05-09T02:41:39.176Z,24.35
2023-05-09T02:42:39.233Z,24.35
2023-05-09T02:43:39.286Z,24.35
2023-05-09T02:44:39.379Z,24.35
2023-05-09T02:45:39.409Z,24.36
2023-05-09T02:46:39.501Z,24.36
2023-05-09T02:47:39.662Z,24.36
2023-05-09T02:48:39.730Z,24.35
2023-05-09T02:49:39.679Z,24.35
2023-05-09T02:50:39.727Z,24.35
2023-05-09T02:51:39.772Z,24.36
2023-05-09T02:52:39.841Z,24.36
2023-05-09T02:53:39.878Z,24.35
2023-05-09T02:54:39.954Z,24.36
2023-05-09T02:55:40.005Z,24.35
2023-05-09T02:56:40.071Z,24.36
2023-05-09T02:57:40.078Z,24.35
2023-05-09T02:58:40.181Z,24.35
2023-05-09T02:59:40.239Z,24.35
2023-05-09T03:00:40.354Z,24.35
2023-05-09T03:01:40.426Z,24.35
2023-05-09T03:02:40.548Z,24.35
2023-05-09T03:03:40.573Z,24.36
2023-05-09T03:04:40.671Z,24.35
2023-05-09T03:05:40.658Z,24.35
2023-05-09T03:06:40.705Z,24.36
2023-05-09T03:07:40.776Z,24.35
2023-05-09T03:08:40.824Z,24.35
2023-05-09T03:09:41.381Z,24.35
2023-05-09T03:10:40.951Z,24.35
2023-05-09T03:11:41.013Z,24.35
2023-05-09T03:12:41.126Z,24.34
2023-05-09T03:13:41.168Z,24.35
2023-05-09T03:14:41.211Z,24.34
2023-05-09T03:15:41.306Z,24.35
2023-05-09T03:16:41.355Z,24.35
2023-05-09T03:17:41.455Z,24.35
2023-05-09T03:18:41.508Z,24.35
2023-05-09T03:19:41.557Z,24.36
2023-05-09T03:20:41.716Z,24.35
2023-05-09T03:21:41.720Z,24.35
2023-05-09T03:22:41.781Z,24.36
2023-05-09T03:23:41.800Z,24.35
2023-05-09T03:24:41.845Z,24.36
2023-05-09T03:25:41.936Z,24.35
2023-05-09T03:26:41.966Z,24.35
2023-05-09T03:27:42.113Z,24.35
2023-05-09T03:28:42.065Z,24.35
2023-05-09T03:29:42.149Z,24.35
2023-05-09T03:30:42.177Z,24.35
2023-05-09T03:31:42.228Z,24.35
2023-05-09T03:32:42.266Z,24.35
2023-05-09T03:33:42.301Z,24.35
2023-05-09T03:34:42.346Z,24.35
2023-05-09T03:35:42.368Z,24.36
2023-05-09T03:36:42.492Z,24.35
2023-05-09T03:37:42.412Z,24.35
2023-05-09T03:38:42.462Z,24.35
2023-05-09T03:39:42.534Z,24.34
2023-05-09T03:40:42.577Z,24.36
2023-05-09T03:41:42.616Z,24.35
2023-05-09T03:42:42.656Z,24.35
2023-05-09T03:43:42.729Z,24.35
2023-05-09T03:44:42.784Z,24.35
2023-05-09T03:45:42.815Z,24.35
2023-05-09T03:46:42.902Z,24.34
2023-05-09T03:47:42.967Z,24.35
2023-05-09T03:48:42.974Z,24.35
2023-05-09T03:49:43.032Z,24.34
2023-05-09T03:50:43.072Z,24.35
2023-05-09T03:51:43.114Z,24.34
2023-05-09T03:52:43.285Z,24.33
2023-05-09T03:53:43.239Z,24.34
2023-05-09T03:54:43.280Z,24.34
2023-05-09T03:55:43.379Z,24.34
2023-05-09T03:56:43.365Z,24.34
2023-05-09T03:57:43.404Z,24.34
2023-05-09T03:58:43.480Z,24.33
2023-05-09T03:59:43.504Z,24.33
2023-05-09T04:00:43.575Z,24.33
2023-05-09T04:01:43.664Z,24.34
2023-05-09T04:02:43.675Z,24.35
2023-05-09T04:03:43.811Z,24.34
2023-05-09T04:04:43.727Z,24.33
2023-05-09T04:05:43.757Z,24.34
2023-05-09T04:06:43.805Z,24.35
2023-05-09T04:07:43.849Z,24.34
2023-05-09T04:08:43.960Z,24.34
2023-05-09T04:09:43.882Z,24.34
2023-05-09T04:10:43.948Z,24.34
2023-05-09T04:11:43.996Z,24.34
2023-05-09T04:12:44.062Z,24.34
2023-05-09T04:13:44.065Z,24.34
2023-05-09T04:14:45.132Z,24.34
2023-05-09T04:15:44.164Z,24.35
2023-05-09T04:16:44.206Z,24.34
2023-05-09T04:17:44.257Z,24.34
2023-05-09T04:18:44.218Z,24.34
2023-05-09T04:19:44.243Z,24.34
2023-05-09T04:20:44.286Z,24.34
2023-05-09T04:21:44.300Z,24.34
2023-05-09T04:22:46.712Z,24.34
2023-05-09T04:23:44.534Z,24.33
2023-05-09T04:24:44.644Z,24.33
2023-05-09T04:25:44.617Z,24.34
2023-05-09T04:26:44.662Z,24.33
2023-05-09T04:27:44.713Z,24.34
2023-05-09T04:28:44.765Z,24.33
2023-05-09T04:29:44.817Z,24.34
2023-05-09T04:30:44.959Z,24.34
2023-05-09T04:31:45.210Z,24.34
2023-05-09T04:32:45.080Z,24.33
2023-05-09T04:33:45.071Z,24.34
2023-05-09T04:34:45.137Z,24.34
2023-05-09T04:35:45.202Z,24.34
2023-05-09T04:36:45.164Z,24.34
2023-05-09T04:37:45.176Z,24.34
2023-05-09T04:38:45.263Z,24.33
2023-05-09T04:39:45.260Z,24.33
2023-05-09T04:40:45.407Z,24.33
2023-05-09T04:41:45.338Z,24.33
2023-05-09T04:42:45.399Z,24.33
2023-05-09T04:43:45.397Z,24.34
2023-05-09T04:44:45.414Z,24.34
2023-05-09T04:45:45.480Z,24.33
2023-05-09T04:46:45.612Z,24.34
2023-05-09T04:47:45.644Z,24.33
2023-05-09T04:48:45.600Z,24.33
2023-05-09T04:49:45.665Z,24.33
2023-05-09T04:50:45.690Z,24.33
2023-05-09T04:51:45.739Z,24.33
2023-05-09T04:52:45.776Z,24.33
2023-05-09T04:53:45.817Z,24.33
2023-05-09T04:54:45.870Z,24.33
2023-05-09T04:55:45.954Z,24.33
2023-05-09T04:56:46.049Z,24.33
2023-05-09T04:57:45.991Z,24.33
2023-05-09T04:58:46.025Z,24.33
2023-05-09T04:59:46.097Z,24.33
2023-05-09T05:00:53.681Z,24.32
2023-05-09T05:01:46.324Z,24.32
2023-05-09T05:02:46.238Z,24.33
2023-05-09T05:03:46.220Z,24.33
2023-05-09T05:04:46.232Z,24.34
2023-05-09T05:05:46.403Z,24.34
2023-05-09T05:06:46.223Z,24.34
2023-05-09T05:07:46.237Z,24.34
2023-05-09T05:08:46.236Z,24.34
2023-05-09T05:09:46.267Z,24.35
2023-05-09T05:10:46.273Z,24.34
2023-05-09T05:11:58.018Z,24.34
2023-05-09T05:12:47.459Z,24.32
2023-05-09T05:13:46.329Z,24.34
2023-05-09T05:14:46.370Z,24.34
2023-05-09T05:15:46.431Z,24.34
2023-05-09T05:16:46.365Z,24.34
2023-05-09T05:17:46.534Z,24.34
2023-05-09T05:18:46.437Z,24.34
2023-05-09T05:19:46.425Z,24.34
2023-05-09T05:20:46.432Z,24.34
2023-05-09T05:21:46.438Z,24.35
2023-05-09T05:22:46.493Z,24.35
2023-05-09T05:23:46.460Z,24.36
2023-05-09T05:24:46.482Z,24.35
2023-05-09T05:25:46.504Z,24.36
2023-05-09T05:26:46.548Z,24.36
2023-05-09T05:27:46.576Z,24.36
2023-05-09T05:28:46.756Z,24.36
2023-05-09T05:29:46.670Z,24.36
2023-05-09T05:30:46.688Z,24.35
2023-05-09T05:31:46.798Z,24.33
2023-05-09T05:32:46.827Z,24.31
2023-05-09T05:33:46.811Z,24.31
2023-05-09T05:34:46.856Z,24.31
2023-05-09T05:35:46.892Z,24.30
2023-05-09T05:36:46.940Z,24.28
2023-05-09T05:37:49.030Z,24.27
2023-05-09T05:38:47.024Z,24.28
2023-05-09T05:39:47.050Z,24.29
2023-05-09T05:40:47.100Z,24.31
2023-05-09T05:41:47.209Z,24.33
2023-05-09T05:42:47.179Z,24.36
2023-05-09T05:43:47.214Z,24.38
2023-05-09T05:44:47.354Z,24.42
2023-05-09T05:47:06.309Z,24.48
2023-05-09T05:48:06.172Z,24.39
2023-05-09T05:49:06.161Z,24.22
2023-05-09T05:50:06.081Z,24.03
2023-05-09T05:51:06.079Z,23.92
2023-05-09T05:52:06.071Z,23.80
2023-05-09T05:53:06.084Z,23.71
2023-05-09T05:54:06.053Z,23.61
2023-05-09T05:55:06.064Z,23.49
2023-05-09T05:56:06.071Z,23.46
2023-05-09T05:57:06.082Z,23.41
2023-05-09T05:58:06.077Z,23.37
2023-05-09T05:59:06.172Z,23.34
2023-05-09T06:00:06.229Z,23.32
2023-05-09T06:01:06.091Z,23.29
2023-05-09T06:02:06.315Z,23.29
2023-05-09T06:03:06.160Z,23.29
2023-05-09T06:04:06.198Z,23.29
2023-05-09T06:05:06.135Z,23.27
2023-05-09T06:06:06.117Z,23.22
2023-05-09T06:07:06.779Z,23.18
2023-05-09T06:08:06.110Z,23.15
2023-05-09T06:09:06.127Z,23.06
2023-05-09T06:10:06.111Z,22.97
2023-05-09T06:11:06.123Z,22.95
2023-05-09T06:12:06.787Z,22.93
2023-05-09T06:13:06.123Z,22.91
2023-05-09T06:14:06.139Z,22.90
2023-05-09T06:15:06.115Z,22.98
2023-05-09T06:16:18.752Z,23.07
2023-05-09T06:17:07.236Z,23.13
2023-05-09T06:18:06.206Z,23.21
2023-05-09T06:19:06.164Z,23.27
2023-05-09T06:20:06.139Z,23.28
2023-05-09T06:21:06.158Z,23.25
2023-05-09T06:22:06.129Z,23.23
2023-05-09T06:23:06.308Z,23.23
2023-05-09T06:24:12.176Z,23.23
2023-05-09T06:25:10.153Z,23.22
2023-05-09T06:26:06.177Z,23.20
2023-05-09T06:27:06.176Z,23.17
2023-05-09T06:28:06.183Z,23.13
2023-05-09T06:29:06.131Z,23.08
2023-05-09T06:30:14.127Z,23.01
2023-05-09T06:31:07.263Z,22.94
2023-05-09T06:32:06.249Z,22.88
2023-05-09T06:33:06.290Z,22.83
2023-05-09T06:34:06.356Z,22.81
2023-05-09T06:35:06.238Z,22.82
2023-05-09T06:36:06.224Z,22.83
2023-05-09T06:37:06.280Z,22.83
2023-05-09T06:38:06.247Z,22.82
2023-05-09T06:39:06.245Z,22.82
2023-05-09T06:40:06.219Z,22.80
2023-05-09T06:41:06.230Z,22.77
2023-05-09T06:42:06.244Z,22.78
2023-05-09T06:43:06.248Z,22.76
2023-05-09T06:44:06.237Z,22.75
2023-05-09T06:45:06.304Z,22.75
2023-05-09T06:46:06.290Z,22.76
2023-05-09T06:47:06.264Z,22.75
2023-05-09T06:48:06.485Z,22.81
2023-05-09T06:49:06.311Z,22.83
2023-05-09T06:50:06.321Z,22.83
2023-05-09T06:51:06.343Z,22.79
2023-05-09T06:52:06.380Z,22.75
2023-05-09T06:53:06.392Z,22.68
2023-05-09T06:54:06.422Z,22.66
2023-05-09T06:55:06.466Z,22.63
2023-05-09T06:56:06.509Z,22.60
2023-05-09T06:57:06.524Z,22.58
2023-05-09T06:58:06.592Z,22.56
2023-05-09T06:59:06.600Z,22.55
2023-05-09T07:00:06.681Z,22.54
2023-05-09T07:01:06.643Z,22.52
2023-05-09T07:02:06.736Z,22.50
2023-05-09T07:03:06.868Z,22.48
2023-05-09T07:04:06.825Z,22.48
2023-05-09T07:05:06.789Z,22.42
2023-05-09T07:06:06.784Z,22.40
2023-05-09T07:07:06.822Z,22.32
2023-05-09T07:08:08.239Z,22.30
2023-05-09T07:09:07.028Z,22.37
2023-05-09T07:10:11.309Z,22.42
2023-05-09T07:11:07.928Z,22.45
2023-05-09T07:12:06.951Z,22.47
2023-05-09T07:13:06.995Z,22.42
2023-05-09T07:14:06.962Z,22.42
2023-05-09T07:15:06.958Z,22.40
2023-05-09T07:16:07.043Z,22.38
2023-05-09T07:17:22.072Z,22.36
2023-05-09T07:18:08.378Z,22.31
2023-05-09T07:19:07.066Z,22.26
2023-05-09T07:20:07.193Z,22.21
2023-05-09T07:21:07.105Z,22.18
2023-05-09T07:22:07.105Z,22.28
2023-05-09T07:23:07.130Z,22.42
2023-05-09T07:24:07.129Z,22.55
2023-05-09T07:25:07.108Z,22.70
2023-05-09T07:26:07.114Z,22.81
2023-05-09T07:27:07.166Z,22.92
2023-05-09T07:28:07.322Z,23.03
2023-05-09T07:29:07.319Z,23.11
2023-05-09T07:30:07.177Z,23.20
2023-05-09T07:31:07.185Z,23.28
2023-05-09T07:32:07.500Z,23.34
2023-05-09T07:33:07.319Z,23.40
2023-05-09T07:34:07.329Z,23.34
2023-05-09T07:35:07.346Z,23.26
2023-05-09T07:36:07.512Z,23.19
2023-05-09T07:37:07.452Z,23.09
2023-05-09T07:38:07.529Z,22.95
2023-05-09T07:39:07.617Z,22.87
2023-05-09T07:40:07.578Z,22.76
2023-05-09T07:41:07.676Z,22.66
2023-05-09T07:42:07.676Z,22.66
2023-05-09T07:43:07.664Z,22.75
2023-05-09T07:44:07.827Z,22.84
2023-05-09T07:45:07.738Z,22.94
2023-05-09T07:46:07.905Z,23.03
2023-05-09T07:47:07.865Z,23.11
2023-05-09T07:48:08.037Z,23.22
2023-05-09T07:49:08.051Z,23.31
2023-05-09T07:50:08.014Z,23.42
2023-05-09T07:51:08.091Z,23.52
2023-05-09T07:52:08.231Z,23.62
2023-05-09T07:53:08.209Z,23.71
2023-05-09T07:54:08.180Z,23.80
2023-05-09T07:55:08.183Z,23.88
2023-05-09T07:56:08.215Z,23.94
2023-05-09T07:57:08.270Z,24.01
2023-05-09T07:58:08.309Z,24.07
2023-05-09T07:59:08.311Z,24.11
2023-05-09T08:00:08.360Z,24.15
2023-05-09T08:01:08.351Z,24.21
2023-05-09T08:02:08.425Z,24.26
2023-05-09T08:03:08.625Z,24.29
2023-05-09T08:04:08.536Z,24.32
2023-05-09T08:05:08.473Z,24.37
2023-05-09T08:06:08.494Z,24.40
2023-05-09T08:07:08.500Z,24.43
2023-05-09T08:08:08.616Z,24.47
2023-05-09T08:09:08.836Z,24.51
2023-05-09T08:10:08.554Z,24.54
2023-05-09T08:11:08.592Z,24.59
2023-05-09T08:12:08.576Z,24.63
2023-05-09T08:13:08.636Z,24.66
2023-05-09T08:14:08.634Z,24.69
2023-05-09T08:15:08.667Z,24.72
2023-05-09T08:16:08.706Z,24.73
2023-05-09T08:17:08.735Z,24.77
2023-05-09T08:18:08.760Z,24.78
2023-05-09T08:19:08.832Z,24.81
2023-05-09T08:20:08.771Z,24.83
2023-05-09T08:21:08.815Z,24.84
2023-05-09T08:22:08.808Z,24.86
2023-05-09T08:23:08.819Z,24.87
2023-05-09T08:24:09.576Z,24.89
2023-05-09T08:25:08.922Z,24.91
2023-05-09T08:26:08.941Z,24.93
2023-05-09T08:27:09.008Z,24.95
2023-05-09T08:28:08.994Z,24.97
2023-05-09T08:29:09.346Z,24.99
2023-05-09T08:30:09.092Z,24.99
2023-05-09T08:31:09.145Z,25.00
2023-05-09T08:32:09.194Z,24.94
2023-05-09T08:33:09.269Z,24.89
2023-05-09T08:34:09.361Z,24.81
2023-05-09T08:35:09.314Z,24.66
2023-05-09T08:36:09.288Z,24.45
2023-05-09T08:37:09.387Z,24.32
2023-05-09T08:38:09.349Z,24.27
2023-05-09T08:39:09.399Z,24.23
2023-05-09T08:40:09.517Z,24.21
2023-05-09T08:41:09.442Z,24.19
2023-05-09T08:42:09.517Z,24.17
2023-05-09T08:43:09.535Z,24.15
2023-05-09T08:44:09.577Z,24.13
2023-05-09T08:45:09.588Z,24.10
2023-05-09T08:46:09.698Z,24.09
2023-05-09T08:47:09.723Z,24.07
2023-05-09T08:48:09.802Z,24.06
2023-05-09T08:49:09.889Z,24.04
2023-05-09T08:50:09.803Z,24.02
2023-05-09T08:51:09.906Z,24.00
2023-05-09T08:52:09.913Z,23.98
2023-05-09T08:53:09.955Z,24.01
2023-05-09T08:54:10.406Z,24.04
2023-05-09T08:55:10.023Z,24.09
2023-05-09T08:56:10.155Z,24.13
2023-05-09T08:57:10.084Z,24.18
2023-05-09T08:58:10.123Z,24.22
2023-05-09T08:59:10.123Z,24.27
2023-05-09T09:00:10.165Z,24.32
2023-05-09T09:01:10.186Z,24.37
2023-05-09T09:02:10.267Z,24.42
2023-05-09T09:03:10.304Z,24.47
2023-05-09T09:04:10.234Z,24.51
2023-05-09T09:05:23.965Z,24.54
2023-05-09T09:06:11.282Z,24.58
2023-05-09T09:07:10.268Z,24.62
2023-05-09T09:08:10.338Z,24.65
2023-05-09T09:09:10.305Z,24.68
2023-05-09T09:10:10.271Z,24.71
2023-05-09T09:11:10.242Z,24.73
2023-05-09T09:12:11.132Z,24.76
2023-05-09T09:13:10.303Z,24.79
2023-05-09T09:14:10.202Z,24.79
2023-05-09T09:15:10.209Z,24.78
2023-05-09T09:16:10.238Z,24.79
2023-05-09T09:17:10.184Z,24.81
2023-05-09T09:18:10.286Z,24.81
2023-05-09T09:19:10.185Z,24.85
2023-05-09T09:20:10.228Z,24.87
2023-05-09T09:21:10.381Z,24.90
2023-05-09T09:22:10.324Z,24.91
2023-05-09T09:23:10.405Z,24.92
2023-05-09T09:24:10.380Z,24.93
2023-05-09T09:25:10.409Z,24.96
2023-05-09T09:26:10.475Z,24.98
2023-05-09T09:27:10.520Z,25.02
2023-05-09T09:28:10.615Z,25.06
2023-05-09T09:29:10.556Z,25.09
2023-05-09T09:30:10.611Z,25.14
2023-05-09T09:31:10.634Z,25.18
2023-05-09T09:32:10.697Z,25.21
2023-05-09T09:33:10.771Z,25.26
2023-05-09T09:34:10.780Z,25.29
2023-05-09T09:35:10.884Z,25.33
2023-05-09T09:36:10.789Z,25.35
2023-05-09T09:37:10.791Z,25.39
2023-05-09T09:38:10.801Z,25.41
2023-05-09T09:39:10.819Z,25.42
2023-05-09T09:40:10.848Z,25.46
2023-05-09T09:41:10.850Z,25.48
2023-05-09T09:42:10.874Z,25.49
2023-05-09T09:43:10.881Z,25.48
2023-05-09T09:44:10.992Z,25.46
2023-05-09T09:45:11.383Z,25.40
2023-05-09T09:46:11.069Z,25.38
2023-05-09T09:47:10.981Z,25.31
2023-05-09T09:48:11.068Z,25.24
2023-05-09T09:49:11.116Z,25.13
2023-05-09T09:50:11.174Z,25.05
2023-05-09T09:51:11.195Z,24.99
2023-05-09T09:52:11.174Z,24.93
2023-05-09T09:53:11.239Z,24.85
2023-05-09T09:54:11.234Z,24.81
2023-05-09T09:55:11.261Z,24.80
2023-05-09T09:56:11.286Z,24.79
2023-05-09T09:57:11.250Z,24.81
2023-05-09T09:58:11.362Z,24.81
2023-05-09T09:59:11.294Z,24.82
2023-05-09T10:00:11.424Z,24.83
2023-05-09T10:01:11.439Z,24.84
2023-05-09T10:02:11.422Z,24.84
2023-05-09T10:03:11.603Z,24.85
2023-05-09T10:04:11.452Z,24.85
2023-05-09T10:05:11.464Z,24.86
2023-05-09T10:06:11.530Z,24.86
2023-05-09T10:07:14.509Z,24.86
2023-05-09T10:08:11.477Z,24.87
2023-05-09T10:09:11.503Z,24.86
2023-05-09T10:10:11.488Z,24.87
2023-05-09T10:11:11.515Z,24.86
2023-05-09T10:12:11.505Z,24.85
2023-05-09T10:13:11.528Z,24.85
2023-05-09T10:14:12.440Z,24.84
2023-05-09T10:15:11.434Z,24.83
2023-05-09T10:16:11.605Z,24.83
2023-05-09T10:17:11.440Z,24.82
2023-05-09T10:18:11.437Z,24.82
2023-05-09T10:19:11.430Z,24.83
2023-05-09T10:20:11.347Z,24.84
2023-05-09T10:21:11.340Z,24.85
2023-05-09T10:22:11.271Z,24.85
2023-05-09T10:23:11.301Z,24.86
2023-05-09T10:24:11.279Z,24.87
2023-05-09T10:25:11.264Z,24.89
2023-05-09T10:26:11.232Z,24.89
2023-05-09T10:27:11.323Z,24.89
2023-05-09T10:28:11.215Z,24.89
2023-05-09T10:29:11.190Z,24.90
2023-05-09T10:30:11.414Z,24.90
2023-05-09T10:31:11.201Z,24.91
2023-05-09T10:32:11.232Z,24.90
2023-05-09T10:33:11.223Z,24.91
2023-05-09T10:34:11.115Z,24.91
2023-05-09T10:35:11.430Z,24.92
2023-05-09T10:36:11.113Z,24.91
2023-05-09T10:37:11.103Z,24.91
2023-05-09T10:38:11.081Z,24.92
2023-05-09T10:39:11.046Z,24.93
2023-05-09T10:40:11.078Z,24.92
2023-05-09T10:41:11.412Z,24.86
2023-05-09T10:42:11.011Z,24.79
2023-05-09T10:43:11.005Z,24.72
2023-05-09T10:44:11.020Z,24.71
2023-05-09T10:45:10.961Z,24.72
2023-05-09T10:46:10.980Z,24.75
2023-05-09T10:47:10.923Z,24.77
2023-05-09T10:48:11.026Z,24.78
2023-05-09T10:49:10.922Z,24.77
2023-05-09T10:50:10.919Z,24.79
2023-05-09T10:51:10.902Z,24.81
2023-05-09T10:52:10.902Z,24.85
2023-05-09T10:53:10.882Z,24.88
2023-05-09T10:54:10.912Z,24.93
2023-05-09T10:55:10.815Z,24.96
2023-05-09T10:56:10.826Z,25.00
2023-05-09T10:57:10.787Z,25.04
2023-05-09T10:58:10.773Z,25.09
2023-05-09T10:59:10.771Z,25.15
2023-05-09T11:00:10.784Z,25.20
2023-05-09T11:01:10.850Z,25.27
2023-05-09T11:02:10.832Z,25.29
2023-05-09T11:03:10.982Z,25.33
2023-05-09T11:04:11.010Z,25.37
2023-05-09T11:05:10.915Z,25.40
2023-05-09T11:06:11.442Z,25.45
2023-05-09T11:07:10.942Z,25.49
2023-05-09T11:08:10.956Z,25.52
2023-05-09T11:09:10.980Z,25.54
2023-05-09T11:10:10.967Z,25.57
2023-05-09T11:11:11.276Z,25.59
2023-05-09T11:12:11.320Z,25.62
2023-05-09T11:13:10.965Z,25.64
2023-05-09T11:14:10.956Z,25.66
2023-05-09T11:15:10.961Z,25.67
2023-05-09T11:16:11.036Z,25.69
2023-05-09T11:17:12.043Z,25.71
2023-05-09T11:18:11.037Z,25.72
2023-05-09T11:19:10.939Z,25.73
2023-05-09T11:20:11.037Z,25.74
2023-05-09T11:21:10.976Z,25.75
2023-05-09T11:22:10.987Z,25.77
2023-05-09T11:23:10.985Z,25.78
2023-05-09T11:24:11.024Z,25.79
2023-05-09T11:25:10.966Z,25.78
2023-05-09T11:26:10.960Z,25.79
2023-05-09T11:27:10.935Z,25.81
2023-05-09T11:28:10.984Z,25.83
2023-05-09T11:29:10.953Z,25.84
2023-05-09T11:30:10.963Z,25.85
2023-05-09T11:31:11.428Z,25.86
2023-05-09T11:32:11.028Z,25.86
2023-05-09T11:33:11.022Z,25.83
2023-05-09T11:34:10.948Z,25.80
2023-05-09T11:35:10.964Z,25.78
2023-05-09T11:36:11.497Z,25.73
2023-05-09T11:37:10.944Z,25.68
2023-05-09T11:38:10.972Z,25.66
2023-05-09T11:39:10.998Z,25.64
2023-05-09T11:40:10.961Z,25.62
2023-05-09T11:41:10.947Z,25.62
2023-05-09T11:42:10.997Z,25.62
2023-05-09T11:43:10.961Z,25.62
2023-05-09T11:44:10.957Z,25.62
2023-05-09T11:45:10.960Z,25.62
2023-05-09T11:46:11.016Z,25.62
2023-05-09T11:47:11.017Z,25.62
2023-05-09T11:48:11.069Z,25.65
2023-05-09T11:49:12.172Z,25.66
2023-05-09T11:50:10.984Z,25.67
2023-05-09T11:51:11.019Z,25.67
2023-05-09T11:52:11.074Z,25.70
2023-05-09T11:53:11.027Z,25.69
2023-05-09T11:54:11.009Z,25.70
2023-05-09T11:55:12.720Z,25.71
2023-05-09T11:56:11.008Z,25.71
2023-05-09T11:57:11.068Z,25.70
2023-05-09T11:58:10.998Z,25.70
2023-05-09T11:59:11.016Z,25.70
2023-05-09T12:00:11.024Z,25.71
2023-05-09T12:01:12.170Z,25.71
2023-05-09T12:02:11.052Z,25.70
2023-05-09T12:03:11.141Z,25.70
2023-05-09T12:04:11.055Z,25.71
2023-05-09T12:05:11.034Z,25.72
2023-05-09T12:06:11.059Z,25.73
2023-05-09T12:07:11.048Z,25.71
2023-05-09T12:08:11.138Z,25.71
2023-05-09T12:09:11.063Z,25.70
2023-05-09T12:10:11.057Z,25.70
2023-05-09T12:11:11.070Z,25.70
2023-05-09T12:12:11.102Z,25.70
2023-05-09T12:13:11.114Z,25.72
2023-05-09T12:14:11.090Z,25.72
2023-05-09T12:15:11.140Z,25.72
2023-05-09T12:16:11.198Z,25.72
2023-05-09T12:17:11.154Z,25.73
2023-05-09T12:18:11.201Z,25.73
2023-05-09T12:19:11.150Z,25.72
2023-05-09T12:20:11.228Z,25.70
2023-05-09T12:21:11.196Z,25.70
2023-05-09T12:22:11.155Z,25.68
2023-05-09T12:23:11.210Z,25.68
2023-05-09T12:24:11.272Z,25.68
2023-05-09T12:25:11.212Z,25.69
2023-05-09T12:26:11.191Z,25.68
2023-05-09T12:27:11.194Z,25.68
2023-05-09T12:28:11.217Z,25.68
2023-05-09T12:29:11.190Z,25.66
2023-05-09T12:30:11.224Z,25.62
2023-05-09T12:31:11.236Z,25.59
2023-05-09T12:32:11.218Z,25.56
2023-05-09T12:33:11.273Z,25.56
2023-05-09T12:34:11.316Z,25.54
2023-05-09T12:35:11.408Z,25.54
2023-05-09T12:36:11.499Z,25.52
2023-05-09T12:37:11.327Z,25.51
2023-05-09T12:38:11.336Z,25.51
2023-05-09T12:39:11.338Z,25.51
2023-05-09T12:40:11.490Z,25.50
2023-05-09T12:41:29.898Z,25.50
2023-05-09T12:42:12.326Z,25.50
2023-05-09T12:43:11.309Z,25.50
2023-05-09T12:44:11.275Z,25.49
2023-05-09T12:45:11.433Z,25.50
2023-05-09T12:46:11.225Z,25.52
2023-05-09T12:47:11.299Z,25.54
2023-05-09T12:48:11.264Z,25.53
2023-05-09T12:50:11.147Z,25.55
2023-05-09T12:51:11.112Z,25.56
2023-05-09T12:52:11.121Z,25.55
2023-05-09T12:53:11.105Z,25.55
2023-05-09T12:54:11.077Z,25.55
2023-05-09T12:55:11.048Z,25.56